sensor_id;sensor_type;location;lat;lon;timestamp;P1;durP1;ratioP1;P2;durP2;ratioP2
5762;SDS011;2906;53.282;9.508;2023-05-10T00:00:15;11.90;;;2.45;;
5762;SDS011;2906;53.282;9.508;2023-05-10T00:01:17;11.57;;;2.45;;
5762;SDS011;2906;53.282;9.508;2023-05-10T00:02:19;7.68;;;2.20;;
5762;SDS011;2906;53.282;9.508;2023-05-10T00:03:20;13.82;;;2.70;;
5762;SDS011;2906;53.282;9.508;2023-05-10T00:04:24;8.00;;;2.40;;
5762;SDS011;2906;53.282;9.508;2023-05-10T00:05:27;7.30;;;2.20;;
5762;SDS011;2906;53.282;9.508;2023-05-10T00:06:29;8.38;;;2.13;;
5762;SDS011;2906;53.282;9.508;2023-05-10T00:07:31;8.88;;;2.28;;
5762;SDS011;2906;53.282;9.508;2023-05-10T00:08:34;11.10;;;2.63;;
5762;SDS011;2906;53.282;9.508;2023-05-10T00:09:35;9.70;;;2.50;;
5762;SDS011;2906;53.282;9.508;2023-05-10T00:10:37;8.70;;;2.20;;
5762;SDS011;2906;53.282;9.508;2023-05-10T00:11:38;9.80;;;2.70;;
5762;SDS011;2906;53.282;9.508;2023-05-10T00:12:41;11.55;;;2.35;;
5762;SDS011;2906;53.282;9.508;2023-05-10T00:13:42;9.88;;;2.33;;
5762;SDS011;2906;53.282;9.508;2023-05-10T00:14:45;15.55;;;2.53;;
5762;SDS011;2906;53.282;9.508;2023-05-10T00:15:46;10.07;;;2.72;;
5762;SDS011;2906;53.282;9.508;2023-05-10T00:16:49;9.35;;;2.47;;
5762;SDS011;2906;53.282;9.508;2023-05-10T00:17:50;13.73;;;2.45;;
5762;SDS011;2906;53.282;9.508;2023-05-10T00:18:52;9.10;;;2.42;;
5762;SDS011;2906;53.282;9.508;2023-05-10T00:19:55;8.45;;;2.40;;
5762;SDS011;2906;53.282;9.508;2023-05-10T00:21:01;8.40;;;2.40;;
5762;SDS011;2906;53.282;9.508;2023-05-10T00:22:02;7.65;;;2.05;;
5762;SDS011;2906;53.282;9.508;2023-05-10T00:23:04;8.57;;;2.03;;
5762;SDS011;2906;53.282;9.508;2023-05-10T00:24:06;10.20;;;2.30;;
5762;SDS011;2906;53.282;9.508;2023-05-10T00:25:08;8.77;;;2.17;;
5762;SDS011;2906;53.282;9.508;2023-05-10T00:26:10;9.05;;;2.05;;
5762;SDS011;2906;53.282;9.508;2023-05-10T00:27:12;9.68;;;2.40;;
5762;SDS011;2906;53.282;9.508;2023-05-10T00:28:13;9.63;;;2.40;;
5762;SDS011;2906;53.282;9.508;2023-05-10T00:29:16;9.35;;;2.50;;
5762;SDS011;2906;53.282;9.508;2023-05-10T00:30:17;10.50;;;2.30;;
5762;SDS011;2906;53.282;9.508;2023-05-10T00:31:19;10.32;;;2.45;;
5762;SDS011;2906;53.282;9.508;2023-05-10T00:32:21;8.52;;;2.30;;
5762;SDS011;2906;53.282;9.508;2023-05-10T00:33:23;9.50;;;2.53;;
5762;SDS011;2906;53.282;9.508;2023-05-10T00:34:24;10.40;;;2.35;;
5762;SDS011;2906;53.282;9.508;2023-05-10T00:35:28;9.65;;;2.13;;
5762;SDS011;2906;53.282;9.508;2023-05-10T00:36:29;8.60;;;2.42;;
5762;SDS011;2906;53.282;9.508;2023-05-10T00:37:32;8.30;;;2.58;;
5762;SDS011;2906;53.282;9.508;2023-05-10T00:38:33;10.75;;;2.42;;
5762;SDS011;2906;53.282;9.508;2023-05-10T00:39:35;8.30;;;2.05;;
5762;SDS011;2906;53.282;9.508;2023-05-10T00:40:36;8.88;;;2.67;;
5762;SDS011;2906;53.282;9.508;2023-05-10T00:41:39;8.98;;;2.58;;
5762;SDS011;2906;53.282;9.508;2023-05-10T00:42:40;9.07;;;2.70;;
5762;SDS011;2906;53.282;9.508;2023-05-10T00:43:42;7.95;;;2.13;;
5762;SDS011;2906;53.282;9.508;2023-05-10T00:44:44;9.75;;;2.45;;
5762;SDS011;2906;53.282;9.508;2023-05-10T00:45:46;9.43;;;2.75;;
5762;SDS011;2906;53.282;9.508;2023-05-10T00:46:48;9.00;;;2.75;;
5762;SDS011;2906;53.282;9.508;2023-05-10T00:47:50;8.60;;;2.55;;
5762;SDS011;2906;53.282;9.508;2023-05-10T00:48:55;11.10;;;2.50;;
5762;SDS011;2906;53.282;9.508;2023-05-10T00:49:57;8.70;;;2.60;;
5762;SDS011;2906;53.282;9.508;2023-05-10T00:51:00;10.13;;;2.30;;
5762;SDS011;2906;53.282;9.508;2023-05-10T00:52:02;10.25;;;2.55;;
5762;SDS011;2906;53.282;9.508;2023-05-10T00:53:04;16.23;;;2.60;;
5762;SDS011;2906;53.282;9.508;2023-05-10T00:54:06;13.73;;;2.50;;
5762;SDS011;2906;53.282;9.508;2023-05-10T00:55:08;10.25;;;2.50;;
5762;SDS011;2906;53.282;9.508;2023-05-10T00:56:11;10.50;;;2.40;;
5762;SDS011;2906;53.282;9.508;2023-05-10T00:57:13;11.23;;;2.53;;
5762;SDS011;2906;53.282;9.508;2023-05-10T00:58:15;9.35;;;2.50;;
5762;SDS011;2906;53.282;9.508;2023-05-10T00:59:16;8.50;;;2.38;;
5762;SDS011;2906;53.282;9.508;2023-05-10T01:00:19;14.07;;;2.70;;
5762;SDS011;2906;53.282;9.508;2023-05-10T01:01:20;11.05;;;2.92;;
5762;SDS011;2906;53.282;9.508;2023-05-10T01:02:22;12.93;;;2.35;;
5762;SDS011;2906;53.282;9.508;2023-05-10T01:03:24;8.27;;;2.08;;
5762;SDS011;2906;53.282;9.508;2023-05-10T01:04:26;12.13;;;2.60;;
5762;SDS011;2906;53.282;9.508;2023-05-10T01:05:28;9.40;;;2.67;;
5762;SDS011;2906;53.282;9.508;2023-05-10T01:06:33;14.40;;;2.47;;
5762;SDS011;2906;53.282;9.508;2023-05-10T01:07:34;8.50;;;2.13;;
5762;SDS011;2906;53.282;9.508;2023-05-10T01:08:36;14.43;;;2.58;;
5762;SDS011;2906;53.282;9.508;2023-05-10T01:09:38;12.63;;;2.42;;
5762;SDS011;2906;53.282;9.508;2023-05-10T01:10:40;10.52;;;2.47;;
5762;SDS011;2906;53.282;9.508;2023-05-10T01:11:42;16.65;;;2.63;;
5762;SDS011;2906;53.282;9.508;2023-05-10T01:12:45;11.88;;;2.65;;
5762;SDS011;2906;53.282;9.508;2023-05-10T01:13:47;8.80;;;2.67;;
5762;SDS011;2906;53.282;9.508;2023-05-10T01:14:54;8.82;;;2.30;;
5762;SDS011;2906;53.282;9.508;2023-05-10T01:15:57;11.95;;;2.67;;
5762;SDS011;2906;53.282;9.508;2023-05-10T01:16:58;18.73;;;2.78;;
5762;SDS011;2906;53.282;9.508;2023-05-10T01:18:02;14.38;;;2.97;;
5762;SDS011;2906;53.282;9.508;2023-05-10T01:19:04;13.52;;;2.50;;
5762;SDS011;2906;53.282;9.508;2023-05-10T01:20:07;9.30;;;2.47;;
5762;SDS011;2906;53.282;9.508;2023-05-10T01:21:15;10.00;;;2.33;;
5762;SDS011;2906;53.282;9.508;2023-05-10T01:22:30;8.90;;;2.53;;
5762;SDS011;2906;53.282;9.508;2023-05-10T01:23:43;8.80;;;2.58;;
5762;SDS011;2906;53.282;9.508;2023-05-10T01:24:59;13.45;;;3.38;;
5762;SDS011;2906;53.282;9.508;2023-05-10T01:26:09;14.88;;;3.08;;
5762;SDS011;2906;53.282;9.508;2023-05-10T01:28:37;8.77;;;2.40;;
5762;SDS011;2906;53.282;9.508;2023-05-10T01:29:47;10.00;;;2.80;;
5762;SDS011;2906;53.282;9.508;2023-05-10T01:32:16;14.95;;;2.97;;
5762;SDS011;2906;53.282;9.508;2023-05-10T01:33:23;11.95;;;2.58;;
5762;SDS011;2906;53.282;9.508;2023-05-10T01:34:29;9.27;;;2.65;;
5762;SDS011;2906;53.282;9.508;2023-05-10T01:35:36;11.95;;;2.60;;
5762;SDS011;2906;53.282;9.508;2023-05-10T01:36:39;9.80;;;2.45;;
5762;SDS011;2906;53.282;9.508;2023-05-10T01:37:45;8.75;;;2.65;;
5762;SDS011;2906;53.282;9.508;2023-05-10T01:38:49;11.13;;;3.40;;
5762;SDS011;2906;53.282;9.508;2023-05-10T01:39:54;12.50;;;2.92;;
5762;SDS011;2906;53.282;9.508;2023-05-10T01:41:02;15.80;;;2.72;;
5762;SDS011;2906;53.282;9.508;2023-05-10T01:42:09;16.55;;;3.55;;
5762;SDS011;2906;53.282;9.508;2023-05-10T01:43:13;11.10;;;2.58;;
5762;SDS011;2906;53.282;9.508;2023-05-10T01:44:21;10.00;;;2.42;;
5762;SDS011;2906;53.282;9.508;2023-05-10T01:45:27;10.60;;;2.90;;
5762;SDS011;2906;53.282;9.508;2023-05-10T01:46:32;13.98;;;2.47;;
5762;SDS011;2906;53.282;9.508;2023-05-10T01:47:37;10.38;;;2.95;;
5762;SDS011;2906;53.282;9.508;2023-05-10T01:48:43;11.30;;;2.97;;
5762;SDS011;2906;53.282;9.508;2023-05-10T01:49:49;12.95;;;3.17;;
5762;SDS011;2906;53.282;9.508;2023-05-10T01:50:51;15.43;;;2.83;;
5762;SDS011;2906;53.282;9.508;2023-05-10T01:51:54;11.57;;;3.22;;
5762;SDS011;2906;53.282;9.508;2023-05-10T01:53:00;14.35;;;3.17;;
5762;SDS011;2906;53.282;9.508;2023-05-10T01:54:02;9.98;;;2.70;;
5762;SDS011;2906;53.282;9.508;2023-05-10T01:55:06;11.75;;;2.80;;
5762;SDS011;2906;53.282;9.508;2023-05-10T01:56:09;11.80;;;2.80;;
5762;SDS011;2906;53.282;9.508;2023-05-10T01:57:11;10.80;;;2.67;;
5762;SDS011;2906;53.282;9.508;2023-05-10T01:58:15;12.07;;;2.80;;
5762;SDS011;2906;53.282;9.508;2023-05-10T01:59:19;9.88;;;2.90;;
5762;SDS011;2906;53.282;9.508;2023-05-10T02:00:20;10.30;;;3.13;;
5762;SDS011;2906;53.282;9.508;2023-05-10T02:01:22;9.55;;;2.90;;
5762;SDS011;2906;53.282;9.508;2023-05-10T02:02:27;11.02;;;3.22;;
5762;SDS011;2906;53.282;9.508;2023-05-10T02:03:31;15.75;;;3.08;;
5762;SDS011;2906;53.282;9.508;2023-05-10T02:04:33;11.35;;;3.05;;
5762;SDS011;2906;53.282;9.508;2023-05-10T02:05:37;9.88;;;2.85;;
5762;SDS011;2906;53.282;9.508;2023-05-10T02:06:39;9.27;;;2.78;;
5762;SDS011;2906;53.282;9.508;2023-05-10T02:07:43;10.27;;;3.05;;
5762;SDS011;2906;53.282;9.508;2023-05-10T02:08:45;13.93;;;2.95;;
5762;SDS011;2906;53.282;9.508;2023-05-10T02:09:48;11.30;;;2.60;;
5762;SDS011;2906;53.282;9.508;2023-05-10T02:10:51;11.15;;;2.90;;
5762;SDS011;2906;53.282;9.508;2023-05-10T02:11:54;10.40;;;3.28;;
5762;SDS011;2906;53.282;9.508;2023-05-10T02:12:58;12.75;;;2.83;;
5762;SDS011;2906;53.282;9.508;2023-05-10T02:14:01;13.10;;;2.88;;
5762;SDS011;2906;53.282;9.508;2023-05-10T02:15:04;10.68;;;2.80;;
5762;SDS011;2906;53.282;9.508;2023-05-10T02:16:07;16.02;;;2.70;;
5762;SDS011;2906;53.282;9.508;2023-05-10T02:17:08;10.27;;;2.85;;
5762;SDS011;2906;53.282;9.508;2023-05-10T02:18:11;10.60;;;2.85;;
5762;SDS011;2906;53.282;9.508;2023-05-10T02:19:14;13.45;;;2.60;;
5762;SDS011;2906;53.282;9.508;2023-05-10T02:20:17;9.60;;;2.80;;
5762;SDS011;2906;53.282;9.508;2023-05-10T02:21:20;11.30;;;3.03;;
5762;SDS011;2906;53.282;9.508;2023-05-10T02:22:23;12.63;;;2.90;;
5762;SDS011;2906;53.282;9.508;2023-05-10T02:23:25;8.65;;;2.60;;
5762;SDS011;2906;53.282;9.508;2023-05-10T02:24:27;10.35;;;2.47;;
5762;SDS011;2906;53.282;9.508;2023-05-10T02:25:29;9.73;;;2.92;;
5762;SDS011;2906;53.282;9.508;2023-05-10T02:26:33;11.43;;;2.70;;
5762;SDS011;2906;53.282;9.508;2023-05-10T02:27:35;17.02;;;2.92;;
5762;SDS011;2906;53.282;9.508;2023-05-10T02:28:38;21.02;;;3.10;;
5762;SDS011;2906;53.282;9.508;2023-05-10T02:29:41;10.75;;;3.35;;
5762;SDS011;2906;53.282;9.508;2023-05-10T02:30:43;13.95;;;3.10;;
5762;SDS011;2906;53.282;9.508;2023-05-10T02:31:45;10.35;;;2.92;;
5762;SDS011;2906;53.282;9.508;2023-05-10T02:32:47;9.40;;;2.78;;
5762;SDS011;2906;53.282;9.508;2023-05-10T02:33:50;10.35;;;2.95;;
5762;SDS011;2906;53.282;9.508;2023-05-10T02:34:55;10.27;;;2.95;;
5762;SDS011;2906;53.282;9.508;2023-05-10T02:35:56;11.40;;;2.92;;
5762;SDS011;2906;53.282;9.508;2023-05-10T02:36:59;9.18;;;2.88;;
5762;SDS011;2906;53.282;9.508;2023-05-10T02:38:00;17.45;;;3.10;;
5762;SDS011;2906;53.282;9.508;2023-05-10T02:39:03;10.32;;;3.40;;
5762;SDS011;2906;53.282;9.508;2023-05-10T02:40:05;11.88;;;2.95;;
5762;SDS011;2906;53.282;9.508;2023-05-10T02:41:08;14.77;;;3.80;;
5762;SDS011;2906;53.282;9.508;2023-05-10T02:42:11;11.73;;;3.28;;
5762;SDS011;2906;53.282;9.508;2023-05-10T02:43:15;10.52;;;2.65;;
5762;SDS011;2906;53.282;9.508;2023-05-10T02:44:17;14.82;;;3.40;;
5762;SDS011;2906;53.282;9.508;2023-05-10T02:45:21;9.45;;;2.75;;
5762;SDS011;2906;53.282;9.508;2023-05-10T02:46:23;9.65;;;2.47;;
5762;SDS011;2906;53.282;9.508;2023-05-10T02:47:25;11.35;;;3.35;;
5762;SDS011;2906;53.282;9.508;2023-05-10T02:48:27;10.15;;;3.00;;
5762;SDS011;2906;53.282;9.508;2023-05-10T02:49:29;11.25;;;3.38;;
5762;SDS011;2906;53.282;9.508;2023-05-10T02:50:32;10.15;;;3.45;;
5762;SDS011;2906;53.282;9.508;2023-05-10T02:51:35;12.20;;;3.45;;
5762;SDS011;2906;53.282;9.508;2023-05-10T02:52:39;14.18;;;3.10;;
5762;SDS011;2906;53.282;9.508;2023-05-10T02:53:41;10.98;;;2.95;;
5762;SDS011;2906;53.282;9.508;2023-05-10T02:54:45;10.57;;;2.70;;
5762;SDS011;2906;53.282;9.508;2023-05-10T02:55:49;10.98;;;2.55;;
5762;SDS011;2906;53.282;9.508;2023-05-10T02:56:53;12.70;;;3.15;;
5762;SDS011;2906;53.282;9.508;2023-05-10T02:57:59;10.60;;;3.10;;
5762;SDS011;2906;53.282;9.508;2023-05-10T02:59:01;10.35;;;3.00;;
5762;SDS011;2906;53.282;9.508;2023-05-10T03:00:03;16.35;;;3.15;;
5762;SDS011;2906;53.282;9.508;2023-05-10T03:01:05;12.45;;;2.95;;
5762;SDS011;2906;53.282;9.508;2023-05-10T03:02:07;11.10;;;3.05;;
5762;SDS011;2906;53.282;9.508;2023-05-10T03:03:09;10.32;;;2.65;;
5762;SDS011;2906;53.282;9.508;2023-05-10T03:04:11;14.18;;;3.22;;
5762;SDS011;2906;53.282;9.508;2023-05-10T03:05:13;10.55;;;3.20;;
5762;SDS011;2906;53.282;9.508;2023-05-10T03:06:16;10.70;;;3.58;;
5762;SDS011;2906;53.282;9.508;2023-05-10T03:07:18;9.57;;;3.15;;
5762;SDS011;2906;53.282;9.508;2023-05-10T03:08:21;10.10;;;3.08;;
5762;SDS011;2906;53.282;9.508;2023-05-10T03:09:23;10.60;;;2.42;;
5762;SDS011;2906;53.282;9.508;2023-05-10T03:10:26;10.27;;;3.08;;
5762;SDS011;2906;53.282;9.508;2023-05-10T03:11:32;13.32;;;3.25;;
5762;SDS011;2906;53.282;9.508;2023-05-10T03:12:41;10.18;;;3.30;;
5762;SDS011;2906;53.282;9.508;2023-05-10T03:13:47;10.80;;;3.22;;
5762;SDS011;2906;53.282;9.508;2023-05-10T03:14:53;10.50;;;3.35;;
5762;SDS011;2906;53.282;9.508;2023-05-10T03:15:59;10.52;;;3.42;;
5762;SDS011;2906;53.282;9.508;2023-05-10T03:17:09;10.10;;;3.05;;
5762;SDS011;2906;53.282;9.508;2023-05-10T03:18:12;11.02;;;3.30;;
5762;SDS011;2906;53.282;9.508;2023-05-10T03:19:17;11.05;;;3.25;;
5762;SDS011;2906;53.282;9.508;2023-05-10T03:20:21;12.48;;;3.45;;
5762;SDS011;2906;53.282;9.508;2023-05-10T03:21:26;9.70;;;3.22;;
5762;SDS011;2906;53.282;9.508;2023-05-10T03:22:29;12.18;;;3.40;;
5762;SDS011;2906;53.282;9.508;2023-05-10T03:23:34;10.15;;;3.55;;
5762;SDS011;2906;53.282;9.508;2023-05-10T03:24:36;13.18;;;3.05;;
5762;SDS011;2906;53.282;9.508;2023-05-10T03:25:38;10.10;;;3.28;;
5762;SDS011;2906;53.282;9.508;2023-05-10T03:26:43;19.65;;;4.15;;
5762;SDS011;2906;53.282;9.508;2023-05-10T03:27:45;15.25;;;3.38;;
5762;SDS011;2906;53.282;9.508;2023-05-10T03:28:48;12.45;;;3.33;;
5762;SDS011;2906;53.282;9.508;2023-05-10T03:29:49;11.43;;;3.55;;
5762;SDS011;2906;53.282;9.508;2023-05-10T03:30:52;10.00;;;3.00;;
5762;SDS011;2906;53.282;9.508;2023-05-10T03:31:54;19.17;;;3.25;;
5762;SDS011;2906;53.282;9.508;2023-05-10T03:32:56;12.98;;;3.17;;
5762;SDS011;2906;53.282;9.508;2023-05-10T03:33:57;14.93;;;3.60;;
5762;SDS011;2906;53.282;9.508;2023-05-10T03:34:59;9.85;;;3.08;;
5762;SDS011;2906;53.282;9.508;2023-05-10T03:36:02;9.63;;;2.90;;
5762;SDS011;2906;53.282;9.508;2023-05-10T03:37:06;11.90;;;3.10;;
5762;SDS011;2906;53.282;9.508;2023-05-10T03:38:08;12.65;;;3.05;;
5762;SDS011;2906;53.282;9.508;2023-05-10T03:39:09;9.50;;;3.33;;
5762;SDS011;2906;53.282;9.508;2023-05-10T03:40:11;12.13;;;3.35;;
5762;SDS011;2906;53.282;9.508;2023-05-10T03:41:13;10.75;;;3.35;;
5762;SDS011;2906;53.282;9.508;2023-05-10T03:42:15;10.15;;;3.20;;
5762;SDS011;2906;53.282;9.508;2023-05-10T03:43:17;10.70;;;3.45;;
5762;SDS011;2906;53.282;9.508;2023-05-10T03:44:20;13.90;;;3.45;;
5762;SDS011;2906;53.282;9.508;2023-05-10T03:45:21;12.70;;;3.40;;
5762;SDS011;2906;53.282;9.508;2023-05-10T03:46:23;11.65;;;3.45;;
5762;SDS011;2906;53.282;9.508;2023-05-10T03:47:25;11.52;;;3.50;;
5762;SDS011;2906;53.282;9.508;2023-05-10T03:48:27;9.88;;;3.00;;
5762;SDS011;2906;53.282;9.508;2023-05-10T03:49:28;13.23;;;3.25;;
5762;SDS011;2906;53.282;9.508;2023-05-10T03:50:32;8.90;;;2.80;;
5762;SDS011;2906;53.282;9.508;2023-05-10T03:51:33;10.35;;;3.75;;
5762;SDS011;2906;53.282;9.508;2023-05-10T03:52:37;12.18;;;3.75;;
5762;SDS011;2906;53.282;9.508;2023-05-10T03:53:39;16.55;;;3.88;;
5762;SDS011;2906;53.282;9.508;2023-05-10T03:54:42;9.38;;;3.35;;
5762;SDS011;2906;53.282;9.508;2023-05-10T03:55:43;13.00;;;3.65;;
5762;SDS011;2906;53.282;9.508;2023-05-10T03:56:45;15.65;;;4.25;;
5762;SDS011;2906;53.282;9.508;2023-05-10T03:57:48;10.40;;;3.05;;
5762;SDS011;2906;53.282;9.508;2023-05-10T03:58:50;10.10;;;3.30;;
5762;SDS011;2906;53.282;9.508;2023-05-10T03:59:51;11.15;;;3.10;;
5762;SDS011;2906;53.282;9.508;2023-05-10T04:00:54;10.75;;;3.67;;
5762;SDS011;2906;53.282;9.508;2023-05-10T04:01:56;16.08;;;3.50;;
5762;SDS011;2906;53.282;9.508;2023-05-10T04:02:58;9.80;;;3.60;;
5762;SDS011;2906;53.282;9.508;2023-05-10T04:03:59;9.52;;;2.83;;
5762;SDS011;2906;53.282;9.508;2023-05-10T04:05:01;11.23;;;3.10;;
5762;SDS011;2906;53.282;9.508;2023-05-10T04:06:03;12.02;;;3.80;;
5762;SDS011;2906;53.282;9.508;2023-05-10T04:07:06;12.15;;;3.30;;
5762;SDS011;2906;53.282;9.508;2023-05-10T04:08:08;10.88;;;3.00;;
5762;SDS011;2906;53.282;9.508;2023-05-10T04:09:11;12.00;;;3.28;;
5762;SDS011;2906;53.282;9.508;2023-05-10T04:10:12;10.88;;;3.38;;
5762;SDS011;2906;53.282;9.508;2023-05-10T04:11:14;10.57;;;3.58;;
5762;SDS011;2906;53.282;9.508;2023-05-10T04:12:16;10.30;;;3.30;;
5762;SDS011;2906;53.282;9.508;2023-05-10T04:13:18;12.52;;;3.38;;
5762;SDS011;2906;53.282;9.508;2023-05-10T04:14:19;16.10;;;3.90;;
5762;SDS011;2906;53.282;9.508;2023-05-10T04:15:22;10.13;;;3.65;;
5762;SDS011;2906;53.282;9.508;2023-05-10T04:16:23;12.27;;;3.80;;
5762;SDS011;2906;53.282;9.508;2023-05-10T04:17:25;9.95;;;3.38;;
5762;SDS011;2906;53.282;9.508;2023-05-10T04:18:26;13.60;;;3.63;;
5762;SDS011;2906;53.282;9.508;2023-05-10T04:19:29;9.70;;;3.13;;
5762;SDS011;2906;53.282;9.508;2023-05-10T04:20:32;10.75;;;3.63;;
5762;SDS011;2906;53.282;9.508;2023-05-10T04:21:34;14.85;;;3.60;;
5762;SDS011;2906;53.282;9.508;2023-05-10T04:22:35;11.40;;;3.60;;
5762;SDS011;2906;53.282;9.508;2023-05-10T04:23:39;10.95;;;3.30;;
5762;SDS011;2906;53.282;9.508;2023-05-10T04:24:40;12.13;;;3.63;;
5762;SDS011;2906;53.282;9.508;2023-05-10T04:25:43;11.68;;;3.40;;
5762;SDS011;2906;53.282;9.508;2023-05-10T04:26:44;12.18;;;3.55;;
5762;SDS011;2906;53.282;9.508;2023-05-10T04:27:46;10.30;;;3.33;;
5762;SDS011;2906;53.282;9.508;2023-05-10T04:28:47;11.77;;;3.85;;
5762;SDS011;2906;53.282;9.508;2023-05-10T04:29:50;10.85;;;2.90;;
5762;SDS011;2906;53.282;9.508;2023-05-10T04:30:51;11.82;;;3.50;;
5762;SDS011;2906;53.282;9.508;2023-05-10T04:31:54;10.55;;;3.65;;
5762;SDS011;2906;53.282;9.508;2023-05-10T04:32:56;11.88;;;3.47;;
5762;SDS011;2906;53.282;9.508;2023-05-10T04:33:58;14.48;;;3.75;;
5762;SDS011;2906;53.282;9.508;2023-05-10T04:35:00;10.38;;;3.28;;
5762;SDS011;2906;53.282;9.508;2023-05-10T04:36:03;10.43;;;3.67;;
5762;SDS011;2906;53.282;9.508;2023-05-10T04:37:06;11.85;;;3.40;;
5762;SDS011;2906;53.282;9.508;2023-05-10T04:38:07;12.38;;;3.05;;
5762;SDS011;2906;53.282;9.508;2023-05-10T04:39:11;10.70;;;3.00;;
5762;SDS011;2906;53.282;9.508;2023-05-10T04:40:13;17.23;;;3.65;;
5762;SDS011;2906;53.282;9.508;2023-05-10T04:41:16;11.13;;;3.22;;
5762;SDS011;2906;53.282;9.508;2023-05-10T04:42:17;10.90;;;3.53;;
5762;SDS011;2906;53.282;9.508;2023-05-10T04:43:19;11.07;;;3.85;;
5762;SDS011;2906;53.282;9.508;2023-05-10T04:44:20;12.68;;;3.10;;
5762;SDS011;2906;53.282;9.508;2023-05-10T04:45:23;11.10;;;3.50;;
5762;SDS011;2906;53.282;9.508;2023-05-10T04:46:24;12.25;;;3.50;;
5762;SDS011;2906;53.282;9.508;2023-05-10T04:47:26;10.30;;;3.25;;
5762;SDS011;2906;53.282;9.508;2023-05-10T04:48:28;12.55;;;2.97;;
5762;SDS011;2906;53.282;9.508;2023-05-10T04:49:30;15.07;;;3.90;;
5762;SDS011;2906;53.282;9.508;2023-05-10T04:50:31;10.15;;;3.40;;
5762;SDS011;2906;53.282;9.508;2023-05-10T04:51:33;14.00;;;3.40;;
5762;SDS011;2906;53.282;9.508;2023-05-10T04:52:35;10.80;;;3.45;;
5762;SDS011;2906;53.282;9.508;2023-05-10T04:53:37;11.95;;;3.13;;
5762;SDS011;2906;53.282;9.508;2023-05-10T04:54:40;10.02;;;3.25;;
5762;SDS011;2906;53.282;9.508;2023-05-10T04:55:42;20.40;;;2.80;;
5762;SDS011;2906;53.282;9.508;2023-05-10T04:56:43;9.35;;;2.65;;
5762;SDS011;2906;53.282;9.508;2023-05-10T04:57:46;17.48;;;3.60;;
5762;SDS011;2906;53.282;9.508;2023-05-10T04:58:47;9.57;;;3.45;;
5762;SDS011;2906;53.282;9.508;2023-05-10T04:59:49;11.02;;;3.28;;
5762;SDS011;2906;53.282;9.508;2023-05-10T05:00:52;10.38;;;3.17;;
5762;SDS011;2906;53.282;9.508;2023-05-10T05:01:53;12.18;;;3.22;;
5762;SDS011;2906;53.282;9.508;2023-05-10T05:02:55;9.93;;;2.92;;
5762;SDS011;2906;53.282;9.508;2023-05-10T05:03:56;10.52;;;2.88;;
5762;SDS011;2906;53.282;9.508;2023-05-10T05:04:59;12.82;;;3.25;;
5762;SDS011;2906;53.282;9.508;2023-05-10T05:06:00;11.65;;;3.58;;
5762;SDS011;2906;53.282;9.508;2023-05-10T05:07:02;10.20;;;3.58;;
5762;SDS011;2906;53.282;9.508;2023-05-10T05:08:04;15.68;;;3.65;;
5762;SDS011;2906;53.282;9.508;2023-05-10T05:09:06;9.48;;;3.20;;
5762;SDS011;2906;53.282;9.508;2023-05-10T05:10:09;11.38;;;3.13;;
5762;SDS011;2906;53.282;9.508;2023-05-10T05:11:11;10.63;;;3.67;;
5762;SDS011;2906;53.282;9.508;2023-05-10T05:12:12;9.73;;;3.53;;
5762;SDS011;2906;53.282;9.508;2023-05-10T05:13:14;11.80;;;3.30;;
5762;SDS011;2906;53.282;9.508;2023-05-10T05:14:16;12.35;;;2.90;;
5762;SDS011;2906;53.282;9.508;2023-05-10T05:15:18;11.40;;;3.42;;
5762;SDS011;2906;53.282;9.508;2023-05-10T05:16:19;10.30;;;3.35;;
5762;SDS011;2906;53.282;9.508;2023-05-10T05:17:21;13.63;;;3.45;;
5762;SDS011;2906;53.282;9.508;2023-05-10T05:18:23;10.55;;;3.35;;
5762;SDS011;2906;53.282;9.508;2023-05-10T05:19:25;11.18;;;3.75;;
5762;SDS011;2906;53.282;9.508;2023-05-10T05:20:26;10.23;;;3.30;;
5762;SDS011;2906;53.282;9.508;2023-05-10T05:21:28;10.77;;;2.90;;
5762;SDS011;2906;53.282;9.508;2023-05-10T05:22:30;11.55;;;4.18;;
5762;SDS011;2906;53.282;9.508;2023-05-10T05:23:32;10.55;;;3.30;;
5762;SDS011;2906;53.282;9.508;2023-05-10T05:24:34;12.73;;;3.05;;
5762;SDS011;2906;53.282;9.508;2023-05-10T05:25:39;9.10;;;2.80;;
5762;SDS011;2906;53.282;9.508;2023-05-10T05:26:42;11.40;;;3.08;;
5762;SDS011;2906;53.282;9.508;2023-05-10T05:27:43;10.45;;;3.08;;
5762;SDS011;2906;53.282;9.508;2023-05-10T05:28:45;15.00;;;3.50;;
5762;SDS011;2906;53.282;9.508;2023-05-10T05:29:48;10.98;;;3.22;;
5762;SDS011;2906;53.282;9.508;2023-05-10T05:30:51;11.52;;;3.10;;
5762;SDS011;2906;53.282;9.508;2023-05-10T05:31:52;10.80;;;2.80;;
5762;SDS011;2906;53.282;9.508;2023-05-10T05:32:54;9.93;;;3.40;;
5762;SDS011;2906;53.282;9.508;2023-05-10T05:33:56;11.73;;;3.30;;
5762;SDS011;2906;53.282;9.508;2023-05-10T05:34:58;9.65;;;3.13;;
5762;SDS011;2906;53.282;9.508;2023-05-10T05:36:00;9.98;;;3.25;;
5762;SDS011;2906;53.282;9.508;2023-05-10T05:37:01;12.52;;;3.40;;
5762;SDS011;2906;53.282;9.508;2023-05-10T05:38:04;9.32;;;3.03;;
5762;SDS011;2906;53.282;9.508;2023-05-10T05:39:06;11.98;;;3.50;;
5762;SDS011;2906;53.282;9.508;2023-05-10T05:40:11;14.82;;;3.10;;
5762;SDS011;2906;53.282;9.508;2023-05-10T05:41:14;11.02;;;3.58;;
5762;SDS011;2906;53.282;9.508;2023-05-10T05:42:16;14.20;;;3.80;;
5762;SDS011;2906;53.282;9.508;2023-05-10T05:43:18;10.40;;;3.03;;
5762;SDS011;2906;53.282;9.508;2023-05-10T05:44:21;11.30;;;3.30;;
5762;SDS011;2906;53.282;9.508;2023-05-10T05:45:22;10.93;;;3.13;;
5762;SDS011;2906;53.282;9.508;2023-05-10T05:46:24;9.90;;;3.08;;
5762;SDS011;2906;53.282;9.508;2023-05-10T05:47:25;10.77;;;2.67;;
5762;SDS011;2906;53.282;9.508;2023-05-10T05:48:29;13.68;;;3.35;;
5762;SDS011;2906;53.282;9.508;2023-05-10T05:49:32;9.77;;;3.38;;
5762;SDS011;2906;53.282;9.508;2023-05-10T05:50:33;10.50;;;3.10;;
5762;SDS011;2906;53.282;9.508;2023-05-10T05:51:35;11.65;;;3.00;;
5762;SDS011;2906;53.282;9.508;2023-05-10T05:52:37;10.60;;;3.17;;
5762;SDS011;2906;53.282;9.508;2023-05-10T05:53:39;9.95;;;2.50;;
5762;SDS011;2906;53.282;9.508;2023-05-10T05:54:40;10.50;;;3.38;;
5762;SDS011;2906;53.282;9.508;2023-05-10T05:55:50;10.10;;;3.20;;
5762;SDS011;2906;53.282;9.508;2023-05-10T05:56:54;10.27;;;3.00;;
5762;SDS011;2906;53.282;9.508;2023-05-10T05:57:56;10.70;;;3.17;;
5762;SDS011;2906;53.282;9.508;2023-05-10T05:58:59;10.07;;;3.65;;
5762;SDS011;2906;53.282;9.508;2023-05-10T06:00:00;10.32;;;3.65;;
5762;SDS011;2906;53.282;9.508;2023-05-10T06:01:03;9.73;;;3.00;;
5762;SDS011;2906;53.282;9.508;2023-05-10T06:02:04;10.18;;;3.10;;
5762;SDS011;2906;53.282;9.508;2023-05-10T06:03:07;11.75;;;3.42;;
5762;SDS011;2906;53.282;9.508;2023-05-10T06:04:08;11.93;;;3.17;;
5762;SDS011;2906;53.282;9.508;2023-05-10T06:05:10;10.68;;;2.90;;
5762;SDS011;2906;53.282;9.508;2023-05-10T06:06:14;12.98;;;3.20;;
5762;SDS011;2906;53.282;9.508;2023-05-10T06:07:16;11.15;;;2.80;;
5762;SDS011;2906;53.282;9.508;2023-05-10T06:08:18;9.35;;;2.90;;
5762;SDS011;2906;53.282;9.508;2023-05-10T06:09:20;9.77;;;2.88;;
5762;SDS011;2906;53.282;9.508;2023-05-10T06:10:23;11.20;;;3.40;;
5762;SDS011;2906;53.282;9.508;2023-05-10T06:11:26;9.95;;;2.78;;
5762;SDS011;2906;53.282;9.508;2023-05-10T06:12:29;10.57;;;3.35;;
5762;SDS011;2906;53.282;9.508;2023-05-10T06:13:31;13.27;;;3.33;;
5762;SDS011;2906;53.282;9.508;2023-05-10T06:14:35;10.52;;;3.60;;
5762;SDS011;2906;53.282;9.508;2023-05-10T06:15:36;11.77;;;3.35;;
5762;SDS011;2906;53.282;9.508;2023-05-10T06:16:38;9.95;;;3.30;;
5762;SDS011;2906;53.282;9.508;2023-05-10T06:17:40;11.30;;;3.35;;
5762;SDS011;2906;53.282;9.508;2023-05-10T06:18:43;12.98;;;3.45;;
5762;SDS011;2906;53.282;9.508;2023-05-10T06:19:45;11.95;;;3.33;;
5762;SDS011;2906;53.282;9.508;2023-05-10T06:20:47;10.27;;;3.13;;
5762;SDS011;2906;53.282;9.508;2023-05-10T06:21:49;12.57;;;3.28;;
5762;SDS011;2906;53.282;9.508;2023-05-10T06:22:50;12.13;;;2.95;;
5762;SDS011;2906;53.282;9.508;2023-05-10T06:23:52;12.02;;;3.58;;
5762;SDS011;2906;53.282;9.508;2023-05-10T06:24:53;11.20;;;3.30;;
5762;SDS011;2906;53.282;9.508;2023-05-10T06:25:56;11.65;;;3.67;;
5762;SDS011;2906;53.282;9.508;2023-05-10T06:27:00;17.20;;;3.45;;
5762;SDS011;2906;53.282;9.508;2023-05-10T06:28:03;10.50;;;3.08;;